Bras d'Or Lakes: Past 24 Hour Conditions

 

Northeast Burgeo Bank - 44255

05:00 AM AST 26 January 2015Buoy position: 47.27N 57.37W
Disclaimer

This table is a summary of hourly weather conditions for the past 24 hours.
Please note that these observations might not always be representative of weather conditions over their associated marine area.

Date / Time
(AST)
Wind(knots) Wave height(m) Wave period(s) Pressure(kPa) Air tempC) Water tempC)
26 January 2015
5:00 N/A N/A N/A N/A N/A N/A
4:00 W 29 gust 39 4.8 14.0 100.2 -4 2
3:00 W 31 gust 39 4.6 14.0 100.0 -3 2
2:00 W 31 gust 39 4.5 13.0 99.9 -3 2
1:00 W 27 gust 35 4.4 14.0 99.7 -2 2
0:00 W 23 gust 27 4.4 14.0 99.5 -1 2
25 January 2015
23:00 WSW 25 gust 33 4.4 12.0 99.3 0 2
22:00 SSW 21 gust 27 4.5 12.0 99.3 2 2
21:00 SSW 16 gust 19 4.7 12.0 99.3 2 2
20:00 WSW 18 gust 23 5.0 13.0 99.3 2 2
19:00 WSW 21 gust 27 5.2 14.0 99.3 2 2
18:00 WSW 23 gust 29 5.9 13.0 99.2 2 2
17:00 WSW 23 gust 27 6.2 13.0 99.1 1 2
16:00 WSW 25 gust 31 6.1 10.0 99.0 1 2
15:00 WSW 23 gust 31 6.5 12.0 98.8 2 2
14:00 WSW 25 gust 31 6.2 13.0 98.7 2 2
13:00 WSW 31 gust 41 7.3 11.0 98.5 2 2
12:00 WSW 35 gust 47 7.3 12.0 98.1 2 2
11:00 WSW 37 gust 49 7.7 12.0 97.8 2 2
10:00 SW 41 gust 51 6.8 12.0 97.4 3 2
9:00 SSW 39 gust 49 6.6 11.0 97.0 4 2
8:00 S 35 gust 45 6.6 11.0 96.9 7 2
7:00 S 35 gust 49 5.8 10.0 97.0 7 2
6:00 SSE 39 gust 49 5.4 9.0 97.2 7 2
5:00 SSE 39 gust 51 4.6 8.0 97.5 7 2
Map of Atlantic - Newfoundland marine weather areas Southwestern Grand Banks - 44138 Banquereau - 44139 Tail of the Bank - 44140 Nickerson Bank - 44251 Northeast Burgeo Bank - 44255 Blanc-Sablon Airport Cap Whittle Chevery Natashquan Airport Heath Point Miscou Island Grand Étang Ingonish Beach North Mountain St.Paul Island J.A. Douglas McCurdy Sydney Airport Charlottetown Airport East Point North Cape Argentia Bonavista Burgeo Cape Race Corner Brook Daniel's Harbour Englee Ferolle Point La Scie Port aux Basques Rocky Harbour Sagona Island St. Anthony Airport St. John's Int'l Airport St. Lawrence Stephenville Airport Twillingate Winterland Wreckhouse Cartwright Airport Mary's Harbour Grates Cove Pool's Island Marticot Island Long Pond Îles de la Madeleine Airport
Legend:
buoy Buoy
land station Land Station

Atlantic - Newfoundland Area

Another Region

What we are doing

Date modified: